Česky Dansk Deutsch English Español Suomi Français Magyar Italiano Nederlands norsk Polski Português svenska Türkçe

 

Het Weer

San Javier (Bolivië)

19:00, 26 mei 2016 (GMT)

NWNNE
WE
SWSSE
Home            
San Javier Concepcion Ascencion De Guarayos San Ignacio De Velasco Viru-Viru Santa Cruz / El Trompillo San Jose De Chiquitos Trinidad Robore San Ignacio De Moxos Magdalena Cochabamba Santa Ana Sucre Camiri San Joaquin Vilhena Aeroporto San Borja Nueva Asuncion Potosi Oruro Villamontes Reyes

Om een weerknop op uw website of weblog te plaatsen, copieer onderstaande code en plak die in uw pagina. In het eerste vakje staat HTML-code, in het tweede vakje UBB-code.


Add to Google

Details

Wind speed:2 bf, 4 kn, 2.1 m/s, 4.6 miles/h, 7.4 km/h
Wind direction:NNW, 340°
Visibility:Greater than 10000 m, 10 km, 32800 ft, 6.2 miles
Clouds:Durchbrochene Bewölkung at 2000 ft, 610 m
Temperature:28°C, 82°F
Gefühlte Temperatur:30°C, 86°F
Dew-point:21°C, 70°F
Atmospheric pressure:1014 hPa, 760.6 mmHg, 29.94 inHg, 1.001 atm
Relative humidity:65.8 %
METAR:SLJV 261900Z 34004KT 9999 BKN020 28/21 Q1014

Snelkoppelingen

Actuele weersinformatie van de hele wereld. Voeg locaties toe met het plus (+) symbool. Deze snelkoppelingen kunnen worden toegevoegd aan Google.

Lid van de Technetium groep

website free tracking
StatCounter NetStat W3C Validator

27-10-2020 04:55:36
astro.technetium.be money.technetium.be phote.technetium.be tafeltennistafel.technetium.be www.ligfiets.net